Terminal Aerodrome Forecast
Issued by NWS

Home | Current Version | Previous Version | Text Only | Print | Product List | Glossary On
Versions: 1 2 3 4 5 6 7 8 9 10 11 12 13 14 15 16 17 18 19 20 21 22 23 24 25 26 27 28
000
FTUS41 KBUF 040311 AAA
TAFIAG
TAF AMD
KIAG 040311Z 0403/0424 26005KT P6SM SCT040
     FM040900 28005KT P6SM BKN035
     FM041400 26010KT P6SM BKN040
     FM041700 26012KT P6SM VCSH BKN040=

USA.gov is the U.S. government's official web portal to all federal, state and local government web resources and services.